createdAt,value
2024-02-17T00:00:22.655Z,87.48
2024-02-17T00:01:22.381Z,87.50
2024-02-17T00:02:22.344Z,87.47
2024-02-17T00:03:22.469Z,87.46
2024-02-17T00:04:43.433Z,87.24
2024-02-17T00:05:22.348Z,86.76
2024-02-17T00:06:22.452Z,86.51
2024-02-17T00:07:22.326Z,86.66
2024-02-17T00:08:22.323Z,86.95
2024-02-17T00:09:22.342Z,87.11
2024-02-17T00:10:22.264Z,87.26
2024-02-17T00:11:22.323Z,87.24
2024-02-17T00:12:22.303Z,87.00
2024-02-17T00:13:22.251Z,86.79
2024-02-17T00:14:22.242Z,86.90
2024-02-17T00:15:22.209Z,86.63
2024-02-17T00:16:22.258Z,86.48
2024-02-17T00:17:22.202Z,86.47
2024-02-17T00:18:22.329Z,86.29
2024-02-17T00:19:22.256Z,86.39
2024-02-17T00:20:22.212Z,86.66
2024-02-17T00:21:22.191Z,86.95
2024-02-17T00:22:22.181Z,86.94
2024-02-17T00:23:22.122Z,87.15
2024-02-17T00:24:22.181Z,87.26
2024-02-17T00:25:22.131Z,87.53
2024-02-17T00:26:22.231Z,87.76
2024-02-17T00:27:22.205Z,87.87
2024-02-17T00:28:22.095Z,87.78
2024-02-17T00:29:22.066Z,87.64
2024-02-17T00:30:22.175Z,87.70
2024-02-17T00:31:22.074Z,87.86
2024-02-17T00:32:22.080Z,87.93
2024-02-17T00:33:22.131Z,87.81
2024-02-17T00:34:22.259Z,87.67
2024-02-17T00:35:22.034Z,87.72
2024-02-17T00:36:22.055Z,87.72
2024-02-17T00:37:22.042Z,87.63
2024-02-17T00:38:21.962Z,87.61
2024-02-17T00:39:22.050Z,87.56
2024-02-17T00:40:22.008Z,87.75
2024-02-17T00:41:22.010Z,87.75
2024-02-17T00:42:21.971Z,87.74
2024-02-17T00:43:21.984Z,87.81
2024-02-17T00:44:21.932Z,87.87
2024-02-17T00:45:21.931Z,88.04
2024-02-17T00:46:21.886Z,88.02
2024-02-17T00:47:21.869Z,88.12
2024-02-17T00:48:21.938Z,88.18
2024-02-17T00:49:21.973Z,88.05
2024-02-17T00:50:21.906Z,87.95
2024-02-17T00:51:21.891Z,87.82
2024-02-17T00:52:21.854Z,87.74
2024-02-17T00:53:21.814Z,87.73
2024-02-17T00:54:21.934Z,87.80
2024-02-17T00:55:21.801Z,87.68
2024-02-17T00:56:21.782Z,87.67
2024-02-17T00:57:21.864Z,87.96
2024-02-17T00:58:21.771Z,88.28
2024-02-17T00:59:21.780Z,88.19
2024-02-17T01:00:21.807Z,88.16
2024-02-17T01:01:26.660Z,88.26
2024-02-17T01:02:21.801Z,88.37
2024-02-17T01:03:21.728Z,88.29
2024-02-17T01:04:21.766Z,88.16
2024-02-17T01:05:22.210Z,88.14
2024-02-17T01:06:21.790Z,88.07
2024-02-17T01:07:21.784Z,88.11
2024-02-17T01:08:21.691Z,88.03
2024-02-17T01:09:21.664Z,87.92
2024-02-17T01:10:21.733Z,87.75
2024-02-17T01:11:21.675Z,87.65
2024-02-17T01:12:21.660Z,87.51
2024-02-17T01:13:21.587Z,87.55
2024-02-17T01:14:21.619Z,87.67
2024-02-17T01:15:21.599Z,87.80
2024-02-17T01:16:21.636Z,87.59
2024-02-17T01:17:21.592Z,87.60
2024-02-17T01:18:21.736Z,87.63
2024-02-17T01:19:21.603Z,87.89
2024-02-17T01:20:21.531Z,88.04
2024-02-17T01:21:21.572Z,88.12
2024-02-17T01:22:21.508Z,87.94
2024-02-17T01:23:21.552Z,87.87
2024-02-17T01:24:21.542Z,88.12
2024-02-17T01:25:21.499Z,87.83
2024-02-17T01:26:21.539Z,87.95
2024-02-17T01:27:21.520Z,87.64
2024-02-17T01:28:21.473Z,87.52
2024-02-17T01:29:21.507Z,87.41
2024-02-17T01:30:21.483Z,86.82
2024-02-17T01:31:21.442Z,86.43
2024-02-17T01:32:21.514Z,86.09
2024-02-17T01:33:21.493Z,85.76
2024-02-17T01:34:21.626Z,85.82
2024-02-17T01:35:21.469Z,85.80
2024-02-17T01:36:21.397Z,85.82
2024-02-17T01:37:21.344Z,86.10
2024-02-17T01:38:21.352Z,86.38
2024-02-17T01:39:21.378Z,86.29
2024-02-17T01:40:21.357Z,86.24
2024-02-17T01:41:21.331Z,86.30
2024-02-17T01:42:21.360Z,85.96
2024-02-17T01:43:21.323Z,85.83
2024-02-17T01:44:21.340Z,85.59
2024-02-17T01:45:21.388Z,85.71
2024-02-17T01:46:21.249Z,85.96
2024-02-17T01:47:21.365Z,85.95
2024-02-17T01:48:21.381Z,85.86
2024-02-17T01:49:21.393Z,85.69
2024-02-17T01:50:21.237Z,85.78
2024-02-17T01:51:21.248Z,86.04
2024-02-17T01:52:21.213Z,86.32
2024-02-17T01:53:21.166Z,86.52
2024-02-17T01:54:21.327Z,86.74
2024-02-17T01:55:21.186Z,86.80
2024-02-17T01:56:21.169Z,86.57
2024-02-17T01:57:21.187Z,86.18
2024-02-17T01:58:21.241Z,85.79
2024-02-17T01:59:21.211Z,85.55
2024-02-17T02:00:21.143Z,85.15
2024-02-17T02:01:21.165Z,85.17
2024-02-17T02:02:21.114Z,85.13
2024-02-17T02:03:21.169Z,85.31
2024-02-17T02:04:21.106Z,85.53
2024-02-17T02:05:21.162Z,85.89
2024-02-17T02:06:21.170Z,86.23
2024-02-17T02:07:21.042Z,86.43
2024-02-17T02:08:21.066Z,86.60
2024-02-17T02:09:21.065Z,86.70
2024-02-17T02:10:21.048Z,86.52
2024-02-17T02:11:21.125Z,86.64
2024-02-17T02:12:21.097Z,86.26
2024-02-17T02:13:21.147Z,86.10
2024-02-17T02:14:20.954Z,86.19
2024-02-17T02:15:22.750Z,86.30
2024-02-17T02:16:20.974Z,86.22
2024-02-17T02:17:20.933Z,86.42
2024-02-17T02:18:21.003Z,86.61
2024-02-17T02:19:21.107Z,86.49
2024-02-17T02:20:20.908Z,86.52
2024-02-17T02:21:20.953Z,86.45
2024-02-17T02:22:20.914Z,86.27
2024-02-17T02:23:20.889Z,86.10
2024-02-17T02:24:20.921Z,86.19
2024-02-17T02:25:20.907Z,86.33
2024-02-17T02:26:20.874Z,86.42
2024-02-17T02:27:20.883Z,86.45
2024-02-17T02:28:20.815Z,86.60
2024-02-17T02:29:20.828Z,86.72
2024-02-17T02:30:20.877Z,86.63
2024-02-17T02:31:20.796Z,86.78
2024-02-17T02:32:20.787Z,86.89
2024-02-17T02:33:20.962Z,86.92
2024-02-17T02:34:20.834Z,86.97
2024-02-17T02:35:20.740Z,87.15
2024-02-17T02:36:20.808Z,87.23
2024-02-17T02:37:20.734Z,87.19
2024-02-17T02:38:20.740Z,87.10
2024-02-17T02:39:20.717Z,86.84
2024-02-17T02:40:20.719Z,86.86
2024-02-17T02:41:20.685Z,86.99
2024-02-17T02:42:20.764Z,86.90
2024-02-17T02:43:20.663Z,86.71
2024-02-17T02:44:20.674Z,86.62
2024-02-17T02:45:20.663Z,86.61
2024-02-17T02:46:20.647Z,86.79
2024-02-17T02:47:20.662Z,86.94
2024-02-17T02:48:20.695Z,86.82
2024-02-17T02:49:20.685Z,86.64
2024-02-17T02:50:20.583Z,86.87
2024-02-17T02:51:20.662Z,86.57
2024-02-17T02:52:20.566Z,86.69
2024-02-17T02:53:20.629Z,86.59
2024-02-17T02:54:20.582Z,86.54
2024-02-17T02:55:20.525Z,86.44
2024-02-17T02:56:20.523Z,86.64
2024-02-17T02:57:20.554Z,86.64
2024-02-17T02:58:20.563Z,86.50
2024-02-17T02:59:20.507Z,86.92
2024-02-17T03:00:20.541Z,87.40
2024-02-17T03:01:20.534Z,87.68
2024-02-17T03:02:20.474Z,87.64
2024-02-17T03:03:20.551Z,87.45
2024-02-17T03:04:20.542Z,87.35
2024-02-17T03:05:20.523Z,87.15
2024-02-17T03:06:20.479Z,87.03
2024-02-17T03:07:20.442Z,86.93
2024-02-17T03:08:20.395Z,86.72
2024-02-17T03:09:20.570Z,86.27
2024-02-17T03:10:20.377Z,85.90
2024-02-17T03:11:20.430Z,85.94
2024-02-17T03:12:20.354Z,85.64
2024-02-17T03:13:20.377Z,85.64
2024-02-17T03:14:20.413Z,85.78
2024-02-17T03:15:20.387Z,86.33
2024-02-17T03:16:20.350Z,86.45
2024-02-17T03:17:20.338Z,86.52
2024-02-17T03:18:20.462Z,86.47
2024-02-17T03:19:20.457Z,85.90
2024-02-17T03:20:20.351Z,85.67
2024-02-17T03:21:20.309Z,85.13
2024-02-17T03:22:20.282Z,85.04
2024-02-17T03:23:20.268Z,84.95
2024-02-17T03:24:20.282Z,85.00
2024-02-17T03:25:20.254Z,85.20
2024-02-17T03:26:20.242Z,85.26
2024-02-17T03:27:20.242Z,85.49
2024-02-17T03:28:20.185Z,85.49
2024-02-17T03:29:20.175Z,85.85
2024-02-17T03:30:20.211Z,85.78
2024-02-17T03:31:20.171Z,85.72
2024-02-17T03:32:20.194Z,85.49
2024-02-17T03:33:20.351Z,85.64
2024-02-17T03:34:20.209Z,85.32
2024-02-17T03:35:20.171Z,85.29
2024-02-17T03:36:20.147Z,85.26
2024-02-17T03:37:20.133Z,85.04
2024-02-17T03:38:20.096Z,85.12
2024-02-17T03:39:20.311Z,84.66
2024-02-17T03:40:20.102Z,84.78
2024-02-17T03:41:20.079Z,84.90
2024-02-17T03:42:20.162Z,85.26
2024-02-17T03:43:20.045Z,85.27
2024-02-17T03:44:20.046Z,85.26
2024-02-17T03:45:20.105Z,85.19
2024-02-17T03:46:20.055Z,85.97
2024-02-17T03:47:19.991Z,86.39
2024-02-17T03:48:20.103Z,87.27
2024-02-17T03:49:20.080Z,88.92
2024-02-17T03:50:19.987Z,90.04
2024-02-17T03:51:19.974Z,91.08
2024-02-17T03:52:20.026Z,91.93
2024-02-17T03:53:19.965Z,92.91
2024-02-17T03:54:19.995Z,93.68
2024-02-17T03:55:19.943Z,94.28
2024-02-17T03:56:19.925Z,95.09
2024-02-17T03:57:20.062Z,95.63
2024-02-17T03:58:19.924Z,96.08
2024-02-17T03:59:19.895Z,96.35
2024-02-17T04:00:19.938Z,96.76
2024-02-17T04:01:19.986Z,96.99
2024-02-17T04:02:19.853Z,97.18
2024-02-17T04:03:19.943Z,97.35
2024-02-17T04:04:19.892Z,97.48
2024-02-17T04:05:19.911Z,97.65
2024-02-17T04:06:19.939Z,97.81
2024-02-17T04:07:19.958Z,97.89
2024-02-17T04:08:19.811Z,97.98
2024-02-17T04:09:19.859Z,98.17
2024-02-17T04:10:19.888Z,98.38
2024-02-17T04:11:19.789Z,98.58
2024-02-17T04:12:19.795Z,98.73
2024-02-17T04:13:19.749Z,98.90
2024-02-17T04:14:19.700Z,99.00
2024-02-17T04:15:19.796Z,99.06
2024-02-17T04:16:19.776Z,99.15
2024-02-17T04:17:19.682Z,99.29
2024-02-17T04:18:19.823Z,99.39
2024-02-17T04:19:19.717Z,99.49
2024-02-17T04:20:19.728Z,99.56
2024-02-17T04:21:19.712Z,99.64
2024-02-17T04:22:19.674Z,99.70
2024-02-17T04:23:19.665Z,99.77
2024-02-17T04:24:19.679Z,99.80
2024-02-17T04:25:19.619Z,99.88
2024-02-17T04:26:19.626Z,99.96
2024-02-17T04:27:19.640Z,100.00
2024-02-17T04:28:19.623Z,100.00
2024-02-17T04:29:19.567Z,100.00
2024-02-17T04:30:19.591Z,100.00
2024-02-17T04:31:19.567Z,100.00
2024-02-17T04:32:19.589Z,100.00
2024-02-17T04:33:19.776Z,100.00
2024-02-17T04:34:19.603Z,100.00
2024-02-17T04:35:19.604Z,100.00
2024-02-17T04:36:19.521Z,100.00
2024-02-17T04:37:19.486Z,100.00
2024-02-17T04:38:19.547Z,100.00
2024-02-17T04:39:19.524Z,100.00
2024-02-17T04:40:19.486Z,100.00
2024-02-17T04:41:19.445Z,100.00
2024-02-17T04:42:19.485Z,100.00
2024-02-17T04:43:19.432Z,100.00
2024-02-17T04:44:19.506Z,100.00
2024-02-17T04:45:19.436Z,100.00
2024-02-17T04:46:19.411Z,100.00
2024-02-17T04:47:19.410Z,100.00
2024-02-17T04:48:19.396Z,100.00
2024-02-17T04:49:19.466Z,100.00
2024-02-17T04:50:19.378Z,100.00
2024-02-17T04:51:19.412Z,100.00
2024-02-17T04:52:19.383Z,100.00
2024-02-17T04:53:19.321Z,100.00
2024-02-17T04:54:19.421Z,100.00
2024-02-17T04:55:19.370Z,100.00
2024-02-17T04:56:19.292Z,100.00
2024-02-17T04:57:19.419Z,100.00
2024-02-17T04:58:19.381Z,100.00
2024-02-17T04:59:19.318Z,100.00
2024-02-17T05:00:19.305Z,100.00
2024-02-17T05:01:19.516Z,100.00
2024-02-17T05:02:19.238Z,100.00
2024-02-17T05:03:19.271Z,100.00
2024-02-17T05:04:19.346Z,100.00
2024-02-17T05:05:19.225Z,100.00
2024-02-17T05:06:19.441Z,100.00
2024-02-17T05:07:19.197Z,100.00
2024-02-17T05:08:19.208Z,100.00
2024-02-17T05:09:19.284Z,100.00
2024-02-17T05:10:19.176Z,100.00
2024-02-17T05:11:19.154Z,100.00
2024-02-17T05:12:19.226Z,100.00
2024-02-17T05:13:19.284Z,100.00
2024-02-17T05:14:19.131Z,100.00
2024-02-17T05:15:19.162Z,100.00
2024-02-17T05:16:19.096Z,100.00
2024-02-17T05:17:19.099Z,100.00
2024-02-17T05:18:19.291Z,100.00
2024-02-17T05:19:19.141Z,100.00
2024-02-17T05:20:19.063Z,100.00
2024-02-17T05:21:19.105Z,100.00
2024-02-17T05:22:19.050Z,100.00
2024-02-17T05:23:19.012Z,100.00
2024-02-17T05:24:19.032Z,100.00
2024-02-17T05:25:19.042Z,100.00
2024-02-17T05:26:18.977Z,100.00
2024-02-17T05:27:19.020Z,100.00
2024-02-17T05:28:18.986Z,100.00
2024-02-17T05:29:18.946Z,100.00
2024-02-17T05:30:19.026Z,100.00
2024-02-17T05:31:18.919Z,100.00
2024-02-17T05:32:18.919Z,100.00
2024-02-17T05:33:19.016Z,100.00
2024-02-17T05:34:18.971Z,100.00
2024-02-17T05:35:18.947Z,100.00
2024-02-17T05:36:18.874Z,100.00
2024-02-17T05:37:18.876Z,100.00
2024-02-17T05:38:18.874Z,100.00
2024-02-17T05:39:18.925Z,100.00
2024-02-17T05:40:18.879Z,100.00
2024-02-17T05:41:18.830Z,99.94
2024-02-17T05:42:18.861Z,99.87
2024-02-17T05:43:18.802Z,99.77
2024-02-17T05:44:18.786Z,99.63
2024-02-17T05:45:18.855Z,99.43
2024-02-17T05:46:18.786Z,99.19
2024-02-17T05:47:18.762Z,98.91
2024-02-17T05:48:18.914Z,98.57
2024-02-17T05:49:18.890Z,98.34
2024-02-17T05:50:18.749Z,98.25
2024-02-17T05:51:18.836Z,98.16
2024-02-17T05:52:18.713Z,98.11
2024-02-17T05:53:18.692Z,98.09
2024-02-17T05:54:18.744Z,98.12
2024-02-17T05:55:18.697Z,98.18
2024-02-17T05:56:18.671Z,98.24
2024-02-17T05:57:18.744Z,98.35
2024-02-17T05:58:18.661Z,98.41
2024-02-17T05:59:18.686Z,98.43
2024-02-17T06:00:18.699Z,98.48
2024-02-17T06:01:18.720Z,98.66
2024-02-17T06:02:18.672Z,98.87
2024-02-17T06:03:18.617Z,99.08
2024-02-17T06:04:18.665Z,99.22
2024-02-17T06:05:18.616Z,99.32
2024-02-17T06:06:18.666Z,99.40
2024-02-17T06:07:18.765Z,99.45
2024-02-17T06:08:18.551Z,99.45
2024-02-17T06:09:18.576Z,99.44
2024-02-17T06:10:18.521Z,99.40
2024-02-17T06:11:18.577Z,99.39
2024-02-17T06:12:18.577Z,99.36
2024-02-17T06:13:18.595Z,99.35
2024-02-17T06:14:18.507Z,99.36
2024-02-17T06:15:18.524Z,99.36
2024-02-17T06:16:18.487Z,99.33
2024-02-17T06:17:18.539Z,99.28
2024-02-17T06:18:18.602Z,99.15
2024-02-17T06:19:18.679Z,99.05
2024-02-17T06:20:18.413Z,98.91
2024-02-17T06:21:18.471Z,98.80
2024-02-17T06:22:18.402Z,98.70
2024-02-17T06:23:18.410Z,98.59
2024-02-17T06:24:18.435Z,98.40
2024-02-17T06:25:18.384Z,98.18
2024-02-17T06:26:18.352Z,98.04
2024-02-17T06:27:18.401Z,97.96
2024-02-17T06:28:18.338Z,97.91
2024-02-17T06:29:18.400Z,97.92
2024-02-17T06:30:18.356Z,97.93
2024-02-17T06:31:18.351Z,97.95
2024-02-17T06:32:18.334Z,98.12
2024-02-17T06:33:18.322Z,98.24
2024-02-17T06:34:18.409Z,98.37
2024-02-17T06:35:18.350Z,98.48
2024-02-17T06:36:18.252Z,98.57
2024-02-17T06:37:18.272Z,98.71
2024-02-17T06:38:18.408Z,98.74
2024-02-17T06:39:18.306Z,98.79
2024-02-17T06:40:18.229Z,98.80
2024-02-17T06:41:18.215Z,98.84
2024-02-17T06:42:18.269Z,98.84
2024-02-17T06:43:18.192Z,98.84
2024-02-17T06:44:18.179Z,98.85
2024-02-17T06:45:18.416Z,98.83
2024-02-17T06:46:18.168Z,98.82
2024-02-17T06:47:18.146Z,98.79
2024-02-17T06:48:18.182Z,98.77
2024-02-17T06:49:18.301Z,98.81
2024-02-17T06:50:24.741Z,98.89
2024-02-17T06:51:18.144Z,98.97
2024-02-17T06:52:18.105Z,99.08
2024-02-17T06:53:19.231Z,99.19
2024-02-17T06:54:18.114Z,99.37
2024-02-17T06:55:18.111Z,99.50
2024-02-17T06:56:18.057Z,99.58
2024-02-17T06:57:18.088Z,99.66
2024-02-17T06:58:18.048Z,99.70
2024-02-17T06:59:18.022Z,99.74
2024-02-17T07:00:18.124Z,99.75
2024-02-17T07:01:18.121Z,99.71
2024-02-17T07:02:17.998Z,99.66
2024-02-17T07:03:18.081Z,99.63
2024-02-17T07:04:18.021Z,99.60
2024-02-17T07:05:17.978Z,99.57
2024-02-17T07:06:18.393Z,99.60
2024-02-17T07:07:18.017Z,99.64
2024-02-17T07:08:17.993Z,99.70
2024-02-17T07:09:17.976Z,99.71
2024-02-17T07:10:17.910Z,99.74
2024-02-17T07:11:17.982Z,99.77
2024-02-17T07:12:17.957Z,99.75
2024-02-17T07:13:17.875Z,99.73
2024-02-17T07:14:17.881Z,99.72
2024-02-17T07:15:17.909Z,99.69
2024-02-17T07:16:17.917Z,99.67
2024-02-17T07:17:17.851Z,99.65
2024-02-17T07:18:18.070Z,99.63
2024-02-17T07:19:17.931Z,99.61
2024-02-17T07:20:17.851Z,99.57
2024-02-17T07:21:17.864Z,99.61
2024-02-17T07:22:17.818Z,99.66
2024-02-17T07:23:17.776Z,99.71
2024-02-17T07:24:17.792Z,99.76
2024-02-17T07:25:17.759Z,99.80
2024-02-17T07:26:17.779Z,99.82
2024-02-17T07:27:17.805Z,99.87
2024-02-17T07:28:17.785Z,99.90
2024-02-17T07:29:17.732Z,99.96
2024-02-17T07:30:17.782Z,100.00
2024-02-17T07:31:17.709Z,100.00
2024-02-17T07:32:17.762Z,99.98
2024-02-17T07:33:18.073Z,99.95
2024-02-17T07:34:17.814Z,99.93
2024-02-17T07:35:17.713Z,99.94
2024-02-17T07:36:17.696Z,99.95
2024-02-17T07:37:17.664Z,99.96
2024-02-17T07:38:17.658Z,99.96
2024-02-17T07:39:17.687Z,100.00
2024-02-17T07:40:17.594Z,100.00
2024-02-17T07:41:17.629Z,100.00
2024-02-17T07:42:17.633Z,100.00
2024-02-17T07:43:17.625Z,100.00
2024-02-17T07:44:17.596Z,100.00
2024-02-17T07:45:17.587Z,100.00
2024-02-17T07:46:19.877Z,100.00
2024-02-17T07:47:17.516Z,100.00
2024-02-17T07:48:17.725Z,100.00
2024-02-17T07:49:17.627Z,100.00
2024-02-17T07:50:17.543Z,100.00
2024-02-17T07:51:17.540Z,100.00
2024-02-17T07:52:17.475Z,100.00
2024-02-17T07:53:17.478Z,100.00
2024-02-17T07:54:17.543Z,100.00
2024-02-17T07:55:17.464Z,100.00
2024-02-17T07:56:17.435Z,100.00
2024-02-17T07:57:17.469Z,100.00
2024-02-17T07:58:17.418Z,100.00
2024-02-17T07:59:17.473Z,100.00
2024-02-17T08:00:17.473Z,100.00
2024-02-17T08:01:17.477Z,100.00
2024-02-17T08:02:17.414Z,100.00
2024-02-17T08:03:17.468Z,100.00
2024-02-17T08:04:17.495Z,100.00
2024-02-17T08:05:17.510Z,100.00
2024-02-17T08:06:17.448Z,100.00
2024-02-17T08:07:20.222Z,100.00
2024-02-17T08:08:17.357Z,100.00
2024-02-17T08:09:17.356Z,100.00
2024-02-17T08:10:17.325Z,100.00
2024-02-17T08:11:17.433Z,100.00
2024-02-17T08:12:17.569Z,100.00
2024-02-17T08:13:17.284Z,100.00
2024-02-17T08:14:17.273Z,100.00
2024-02-17T08:15:17.419Z,100.00
2024-02-17T08:16:17.366Z,100.00
2024-02-17T08:17:17.259Z,100.00
2024-02-17T08:18:17.493Z,100.00
2024-02-17T08:19:17.282Z,100.00
2024-02-17T08:20:17.257Z,100.00
2024-02-17T08:21:17.521Z,100.00
2024-02-17T08:22:17.201Z,100.00
2024-02-17T08:23:17.166Z,100.00
2024-02-17T08:24:17.203Z,100.00
2024-02-17T08:25:17.165Z,100.00
2024-02-17T08:26:17.183Z,100.00
2024-02-17T08:27:17.165Z,100.00
2024-02-17T08:28:17.116Z,100.00
2024-02-17T08:29:17.117Z,100.00
2024-02-17T08:30:17.111Z,100.00
2024-02-17T08:31:17.110Z,100.00
2024-02-17T08:32:17.124Z,100.00
2024-02-17T08:33:17.207Z,100.00
2024-02-17T08:34:17.188Z,100.00
2024-02-17T08:35:17.178Z,100.00
2024-02-17T08:36:17.140Z,100.00
2024-02-17T08:37:17.080Z,100.00
2024-02-17T08:38:17.032Z,100.00
2024-02-17T08:39:17.038Z,100.00
2024-02-17T08:40:17.017Z,100.00
2024-02-17T08:41:17.000Z,100.00
2024-02-17T08:42:17.170Z,100.00
2024-02-17T08:43:16.952Z,100.00
2024-02-17T08:44:16.950Z,100.00
2024-02-17T08:45:16.970Z,100.00
2024-02-17T08:46:16.987Z,100.00
2024-02-17T08:47:16.931Z,100.00
2024-02-17T08:48:17.134Z,100.00
2024-02-17T08:49:17.120Z,100.00
2024-02-17T08:50:16.930Z,100.00
2024-02-17T08:51:16.969Z,100.00
2024-02-17T08:52:16.905Z,100.00
2024-02-17T08:53:16.882Z,100.00
2024-02-17T08:54:16.885Z,100.00
2024-02-17T08:55:16.860Z,100.00
2024-02-17T08:56:16.834Z,100.00
2024-02-17T08:57:16.901Z,100.00
2024-02-17T08:58:16.828Z,100.00
2024-02-17T08:59:16.801Z,100.00
2024-02-17T09:00:16.900Z,100.00
2024-02-17T09:01:16.824Z,100.00
2024-02-17T09:02:16.778Z,100.00
2024-02-17T09:03:16.816Z,100.00
2024-02-17T09:04:16.791Z,100.00
2024-02-17T09:05:16.742Z,100.00
2024-02-17T09:06:17.031Z,100.00
2024-02-17T09:07:16.827Z,100.00
2024-02-17T09:08:16.715Z,100.00
2024-02-17T09:09:16.728Z,100.00
2024-02-17T09:10:16.974Z,100.00
2024-02-17T09:11:17.496Z,100.00
2024-02-17T09:12:16.876Z,100.00
2024-02-17T09:13:16.664Z,99.99
2024-02-17T09:14:16.668Z,99.99
2024-02-17T09:15:16.743Z,100.00
2024-02-17T09:16:16.645Z,100.00
2024-02-17T09:17:16.604Z,100.00
2024-02-17T09:18:16.798Z,99.96
2024-02-17T09:19:16.618Z,99.90
2024-02-17T09:20:16.643Z,99.85
2024-02-17T09:21:16.603Z,99.79
2024-02-17T09:22:16.586Z,99.79
2024-02-17T09:23:16.593Z,99.75
2024-02-17T09:24:16.627Z,99.72
2024-02-17T09:25:16.544Z,99.66
2024-02-17T09:26:16.538Z,99.58
2024-02-17T09:27:16.788Z,99.54
2024-02-17T09:28:16.534Z,99.59
2024-02-17T09:29:16.558Z,99.65
2024-02-17T09:30:16.598Z,99.68
2024-02-17T09:31:16.486Z,99.62
2024-02-17T09:32:16.439Z,99.54
2024-02-17T09:33:16.605Z,99.42
2024-02-17T09:34:16.810Z,99.33
2024-02-17T09:35:16.534Z,99.31
2024-02-17T09:36:16.524Z,99.28
2024-02-17T09:37:16.436Z,99.25
2024-02-17T09:38:16.462Z,99.25
2024-02-17T09:39:16.459Z,99.28
2024-02-17T09:40:16.451Z,99.29
2024-02-17T09:41:16.436Z,99.28
2024-02-17T09:42:16.449Z,99.30
2024-02-17T09:43:16.461Z,99.35
2024-02-17T09:44:16.324Z,99.35
2024-02-17T09:45:16.340Z,99.39
2024-02-17T09:46:16.430Z,99.47
2024-02-17T09:47:16.312Z,99.54
2024-02-17T09:48:16.482Z,99.62
2024-02-17T09:49:16.398Z,99.66
2024-02-17T09:50:16.322Z,99.69
2024-02-17T09:51:16.307Z,99.70
2024-02-17T09:52:16.298Z,99.72
2024-02-17T09:53:16.239Z,99.74
2024-02-17T09:54:16.257Z,99.79
2024-02-17T09:55:16.198Z,99.81
2024-02-17T09:56:16.224Z,99.83
2024-02-17T09:57:16.322Z,99.83
2024-02-17T09:58:16.242Z,99.83
2024-02-17T09:59:16.157Z,99.80
2024-02-17T10:00:16.214Z,99.76
2024-02-17T10:01:16.203Z,99.73
2024-02-17T10:02:16.140Z,99.76
2024-02-17T10:03:16.277Z,99.80
2024-02-17T10:04:16.242Z,99.84
2024-02-17T10:05:16.175Z,99.87
2024-02-17T10:06:16.273Z,99.89
2024-02-17T10:07:16.206Z,99.92
2024-02-17T10:08:16.130Z,99.91
2024-02-17T10:09:16.111Z,99.92
2024-02-17T10:10:16.077Z,99.89
2024-02-17T10:11:16.095Z,99.86
2024-02-17T10:12:16.046Z,99.87
2024-02-17T10:13:16.093Z,99.90
2024-02-17T10:14:15.996Z,99.90
2024-02-17T10:15:16.036Z,99.97
2024-02-17T10:16:16.041Z,100.00
2024-02-17T10:17:15.973Z,100.00
2024-02-17T10:18:17.233Z,100.00
2024-02-17T10:19:16.169Z,100.00
2024-02-17T10:20:16.031Z,100.00
2024-02-17T10:21:15.957Z,100.00
2024-02-17T10:22:15.933Z,100.00
2024-02-17T10:23:15.916Z,100.00
2024-02-17T10:24:15.916Z,100.00
2024-02-17T10:25:15.911Z,100.00
2024-02-17T10:26:15.876Z,100.00
2024-02-17T10:27:15.882Z,100.00
2024-02-17T10:28:15.846Z,99.94
2024-02-17T10:29:15.883Z,99.88
2024-02-17T10:30:15.952Z,99.81
2024-02-17T10:31:15.836Z,99.78
2024-02-17T10:32:15.813Z,99.72
2024-02-17T10:33:15.929Z,99.72
2024-02-17T10:34:15.936Z,99.76
2024-02-17T10:35:15.983Z,99.76
2024-02-17T10:36:15.817Z,99.81
2024-02-17T10:37:15.770Z,99.83
2024-02-17T10:38:15.781Z,99.89
2024-02-17T10:39:15.784Z,99.92
2024-02-17T10:40:15.713Z,99.97
2024-02-17T10:41:15.774Z,100.00
2024-02-17T10:42:15.782Z,100.00
2024-02-17T10:43:15.750Z,100.00
2024-02-17T10:44:15.727Z,100.00
2024-02-17T10:45:15.859Z,100.00
2024-02-17T10:46:15.837Z,100.00
2024-02-17T10:47:15.655Z,100.00
2024-02-17T10:48:15.820Z,100.00
2024-02-17T10:49:15.843Z,100.00
2024-02-17T10:50:17.847Z,100.00
2024-02-17T10:51:15.696Z,100.00
2024-02-17T10:52:15.616Z,100.00
2024-02-17T10:53:15.586Z,100.00
2024-02-17T10:54:15.616Z,100.00
2024-02-17T10:55:15.580Z,100.00
2024-02-17T10:56:15.654Z,100.00
2024-02-17T10:57:15.621Z,100.00
2024-02-17T10:58:15.525Z,100.00
2024-02-17T10:59:15.522Z,100.00
2024-02-17T11:00:15.582Z,100.00
2024-02-17T11:01:15.601Z,100.00
2024-02-17T11:02:15.552Z,100.00
2024-02-17T11:03:15.532Z,99.97
2024-02-17T11:04:15.558Z,99.89
2024-02-17T11:05:15.513Z,99.88
2024-02-17T11:06:15.539Z,99.92
2024-02-17T11:07:15.465Z,99.86
2024-02-17T11:08:15.484Z,99.79
2024-02-17T11:09:15.458Z,99.68
2024-02-17T11:10:15.442Z,99.68
2024-02-17T11:11:15.432Z,99.64
2024-02-17T11:12:15.435Z,99.61
2024-02-17T11:13:15.373Z,99.53
2024-02-17T11:14:15.432Z,99.48
2024-02-17T11:15:15.376Z,99.37
2024-02-17T11:16:15.429Z,99.35
2024-02-17T11:17:15.328Z,99.38
2024-02-17T11:18:15.524Z,99.36
2024-02-17T11:19:17.391Z,99.35
2024-02-17T11:20:15.519Z,99.30
2024-02-17T11:21:15.354Z,99.31
2024-02-17T11:22:15.281Z,99.27
2024-02-17T11:23:15.256Z,99.18
2024-02-17T11:24:15.462Z,99.19
2024-02-17T11:25:15.277Z,99.21
2024-02-17T11:27:15.327Z,99.09
2024-02-17T11:28:15.231Z,99.08
2024-02-17T11:29:15.226Z,98.97
2024-02-17T11:30:15.593Z,98.96
2024-02-17T11:31:15.256Z,99.04
2024-02-17T11:32:15.174Z,99.15
2024-02-17T11:33:15.286Z,99.13
2024-02-17T11:34:15.312Z,99.08
2024-02-17T11:35:15.289Z,99.07
2024-02-17T11:36:15.510Z,99.13
2024-02-17T11:37:15.313Z,99.14
2024-02-17T11:38:15.109Z,99.19
2024-02-17T11:39:15.181Z,99.22
2024-02-17T11:40:15.108Z,99.21
2024-02-17T11:41:15.114Z,99.15
2024-02-17T11:42:15.136Z,99.12
2024-02-17T11:43:15.058Z,99.18
2024-02-17T11:44:15.074Z,99.19
2024-02-17T11:45:15.093Z,99.19
2024-02-17T11:46:17.004Z,99.22
2024-02-17T11:47:15.041Z,99.32
2024-02-17T11:48:15.151Z,99.33
2024-02-17T11:49:15.099Z,99.31
2024-02-17T11:50:15.031Z,99.36
2024-02-17T11:51:15.111Z,99.43
2024-02-17T11:52:15.029Z,99.42
2024-02-17T11:53:14.986Z,99.44
2024-02-17T11:54:14.989Z,99.47
2024-02-17T11:55:15.000Z,99.43
2024-02-17T11:56:14.928Z,99.44
2024-02-17T11:57:15.030Z,99.44
2024-02-17T11:58:14.903Z,99.50
2024-02-17T11:59:14.880Z,99.59
2024-02-17T12:00:14.952Z,99.62
2024-02-17T12:01:15.240Z,99.61
2024-02-17T12:02:14.877Z,99.61
2024-02-17T12:03:14.914Z,99.64
2024-02-17T12:04:14.928Z,99.74
2024-02-17T12:05:14.871Z,99.79
2024-02-17T12:06:14.877Z,99.79
2024-02-17T12:07:14.881Z,99.76
2024-02-17T12:08:14.822Z,99.69
2024-02-17T12:09:14.910Z,99.66
2024-02-17T12:10:14.778Z,99.65
2024-02-17T12:11:14.898Z,99.64
2024-02-17T12:12:14.767Z,99.62
2024-02-17T12:13:14.776Z,99.67
2024-02-17T12:14:14.726Z,99.71
2024-02-17T12:15:14.910Z,99.78
2024-02-17T12:16:14.717Z,99.76
2024-02-17T12:17:14.716Z,99.73
2024-02-17T12:18:14.899Z,99.71
2024-02-17T12:19:14.780Z,99.71
2024-02-17T12:20:14.767Z,99.74
2024-02-17T12:21:14.745Z,99.77
2024-02-17T12:22:14.646Z,99.73
2024-02-17T12:23:14.651Z,99.70
2024-02-17T12:24:14.643Z,99.77
2024-02-17T12:25:14.648Z,99.76
2024-02-17T12:26:24.006Z,99.79
2024-02-17T12:27:14.633Z,99.83
2024-02-17T12:28:14.600Z,99.77
2024-02-17T12:29:14.602Z,99.68
2024-02-17T12:30:14.664Z,99.67
2024-02-17T12:31:14.689Z,99.63
2024-02-17T12:32:14.579Z,99.59
2024-02-17T12:33:14.617Z,99.53
2024-02-17T12:34:14.687Z,99.46
2024-02-17T12:35:14.798Z,99.46
2024-02-17T12:36:14.563Z,99.45
2024-02-17T12:37:14.569Z,99.43
2024-02-17T12:38:17.333Z,99.33
2024-02-17T12:39:14.520Z,99.35
2024-02-17T12:40:14.491Z,99.38
2024-02-17T12:41:14.542Z,99.39
2024-02-17T12:42:14.645Z,99.36
2024-02-17T12:43:14.513Z,99.21
2024-02-17T12:44:14.457Z,99.13
2024-02-17T12:45:14.440Z,99.13
2024-02-17T12:46:14.419Z,98.87
2024-02-17T12:47:14.408Z,98.86